Time;durP1;ratioP1;P1;durP2;ratioP2;P2;SDS_P1;SDS_P2;PMS_P1;PMS_P2;Temp;Humidity;BMP_temperature;BMP_pressure;BME280_temperature;BME280_humidity;BME280_pressure;Samples;Min_cycle;Max_cycle;Signal;HPM_P1;HPM_P2
2022/08/07 00:03:07;;;;;;;1.00;0.90;;;;;;;;;;10408424;28;20273;-80
2022/08/07 00:08:07;;;;;;;1.30;0.77;;;;;;;;;;10371349;28;20049;-78
2022/08/07 00:13:08;;;;;;;1.13;0.70;;;;;;;;;;10361142;28;20490;-77
2022/08/07 00:18:08;;;;;;;0.80;0.80;;;;;;;;;;10352507;28;20116;-77
2022/08/07 00:23:08;;;;;;;1.10;0.65;;;;;;;;;;10360159;28;20276;-78
2022/08/07 00:28:09;;;;;;;1.57;0.70;;;;;;;;;;10372082;28;20485;-78
2022/08/07 00:33:09;;;;;;;0.87;0.83;;;;;;;;;;10378466;28;20065;-78
2022/08/07 00:38:10;;;;;;;1.30;0.73;;;;;;;;;;10354310;28;20301;-78
2022/08/07 00:43:11;;;;;;;1.30;0.80;;;;;;;;;;10377764;28;20037;-77
2022/08/07 00:48:11;;;;;;;0.98;0.88;;;;;;;;;;10361708;28;20289;-79
2022/08/07 00:53:12;;;;;;;0.65;0.65;;;;;;;;;;10343597;28;20042;-79
2022/08/07 00:58:12;;;;;;;1.08;0.80;;;;;;;;;;10361978;28;20038;-78
2022/08/07 01:03:13;;;;;;;0.80;0.80;;;;;;;;;;10360568;28;20856;-79
2022/08/07 01:08:13;;;;;;;0.85;0.73;;;;;;;;;;10363302;28;20312;-77
2022/08/07 01:13:14;;;;;;;0.88;0.80;;;;;;;;;;10361173;28;20478;-79
2022/08/07 01:18:14;;;;;;;1.92;0.80;;;;;;;;;;10321697;28;20165;-79
2022/08/07 01:23:15;;;;;;;1.88;1.35;;;;;;;;;;10352390;28;20132;-78
2022/08/07 01:28:16;;;;;;;2.58;1.10;;;;;;;;;;10360959;28;20384;-78
2022/08/07 01:33:17;;;;;;;1.35;0.80;;;;;;;;;;10350098;28;20046;-78
2022/08/07 01:38:20;;;;;;;1.90;1.00;;;;;;;;;;10342187;28;20053;-77
2022/08/07 01:43:21;;;;;;;1.00;0.90;;;;;;;;;;10339438;28;20791;-77
2022/08/07 01:48:22;;;;;;;1.13;1.00;;;;;;;;;;10357780;28;20122;-79
2022/08/07 01:53:25;;;;;;;2.38;1.00;;;;;;;;;;10342629;28;20046;-79
2022/08/07 01:58:33;;;;;;;1.73;0.90;;;;;;;;;;10360865;28;20048;-78
2022/08/07 02:03:39;;;;;;;1.27;0.95;;;;;;;;;;10350844;28;20061;-77
2022/08/07 02:08:42;;;;;;;1.08;0.98;;;;;;;;;;10355986;28;20058;-77
2022/08/07 02:13:44;;;;;;;1.03;0.90;;;;;;;;;;10360139;28;20174;-78
2022/08/07 02:18:46;;;;;;;1.45;0.95;;;;;;;;;;10353466;28;20057;-80
2022/08/07 02:23:47;;;;;;;1.15;0.90;;;;;;;;;;10334092;28;20042;-79
2022/08/07 02:28:47;;;;;;;1.30;1.17;;;;;;;;;;10353811;28;20084;-78
2022/08/07 02:33:48;;;;;;;1.80;1.00;;;;;;;;;;10356606;28;20149;-78
2022/08/07 02:38:50;;;;;;;2.22;1.00;;;;;;;;;;10329443;28;20134;-80
2022/08/07 02:43:52;;;;;;;1.10;1.00;;;;;;;;;;10344502;28;20038;-77
2022/08/07 02:48:52;;;;;;;2.00;1.20;;;;;;;;;;10336343;28;20053;-78
2022/08/07 02:53:54;;;;;;;1.52;1.20;;;;;;;;;;10347999;28;20046;-78
2022/08/07 02:58:59;;;;;;;1.73;1.20;;;;;;;;;;10351230;28;20057;-77
2022/08/07 03:04:02;;;;;;;1.40;1.30;;;;;;;;;;10325109;28;20766;-77
2022/08/07 03:15:13;;;;;;;1.55;1.20;;;;;;;;;;10354716;28;20523;-78
2022/08/07 03:20:15;;;;;;;1.45;1.20;;;;;;;;;;10357096;28;20041;-79
2022/08/07 03:25:17;;;;;;;1.23;0.90;;;;;;;;;;10342813;28;20065;-78
2022/08/07 03:30:19;;;;;;;1.30;1.20;;;;;;;;;;10346995;28;20049;-79
2022/08/07 03:35:24;;;;;;;1.20;1.10;;;;;;;;;;10341031;28;20088;-77
2022/08/07 03:40:25;;;;;;;1.93;1.33;;;;;;;;;;10358788;28;20104;-78
2022/08/07 03:45:27;;;;;;;2.05;1.08;;;;;;;;;;10359274;28;20038;-79
2022/08/07 03:50:29;;;;;;;2.45;1.08;;;;;;;;;;10347568;28;20069;-77
2022/08/07 03:55:30;;;;;;;1.53;0.90;;;;;;;;;;10368998;28;20509;-78
2022/08/07 04:00:32;;;;;;;0.98;0.90;;;;;;;;;;10370292;28;20100;-78
2022/08/07 04:05:34;;;;;;;1.75;1.30;;;;;;;;;;10340085;28;20062;-77
2022/08/07 04:10:35;;;;;;;2.33;1.20;;;;;;;;;;10365262;28;20046;-78
2022/08/07 04:15:36;;;;;;;1.90;1.05;;;;;;;;;;10351317;28;20458;-78
2022/08/07 04:20:36;;;;;;;1.27;1.17;;;;;;;;;;10361345;28;20069;-78
2022/08/07 04:25:39;;;;;;;1.88;1.02;;;;;;;;;;10361777;28;20046;-78
2022/08/07 04:30:40;;;;;;;1.33;1.17;;;;;;;;;;10353454;28;20176;-80
2022/08/07 04:35:51;;;;;;;3.05;1.30;;;;;;;;;;10366246;28;20114;-79
2022/08/07 04:40:56;;;;;;;1.83;1.48;;;;;;;;;;10388222;28;20046;-78
2022/08/07 04:46:08;;;;;;;1.65;1.30;;;;;;;;;;10354964;28;20084;-78
2022/08/07 04:51:15;;;;;;;2.25;1.35;;;;;;;;;;10363006;28;20351;-78
2022/08/07 04:56:43;;;;;;;1.20;1.10;;;;;;;;;;10358603;28;20053;-77
2022/08/07 05:02:07;;;;;;;2.72;1.42;;;;;;;;;;10357880;28;20161;-77
2022/08/07 05:07:08;;;;;;;1.23;1.00;;;;;;;;;;10313082;28;20054;-77
2022/08/07 05:12:12;;;;;;;1.45;1.25;;;;;;;;;;10360322;28;20048;-77
2022/08/07 05:17:14;;;;;;;2.00;1.23;;;;;;;;;;10357931;28;20045;-79
2022/08/07 05:22:16;;;;;;;1.38;1.25;;;;;;;;;;10344855;28;20042;-80
2022/08/07 05:27:18;;;;;;;1.10;1.00;;;;;;;;;;10343852;28;20046;-78
2022/08/07 05:32:19;;;;;;;1.42;1.20;;;;;;;;;;10359482;28;20101;-79
2022/08/07 05:37:20;;;;;;;1.33;1.10;;;;;;;;;;10350127;28;20045;-79
2022/08/07 05:42:29;;;;;;;1.70;0.95;;;;;;;;;;10359716;28;20496;-78
2022/08/07 05:47:31;;;;;;;1.73;1.00;;;;;;;;;;10350658;28;20050;-76
2022/08/07 05:52:32;;;;;;;1.52;1.10;;;;;;;;;;10350768;28;20065;-78
2022/08/07 05:57:35;;;;;;;1.70;1.17;;;;;;;;;;10329666;28;20125;-76
2022/08/07 06:02:37;;;;;;;1.87;1.00;;;;;;;;;;10356473;28;20042;-78
2022/08/07 06:07:40;;;;;;;3.28;1.00;;;;;;;;;;10338336;28;20111;-78
2022/08/07 06:12:41;;;;;;;1.17;1.07;;;;;;;;;;10358027;28;20141;-77
2022/08/07 06:17:42;;;;;;;1.73;1.30;;;;;;;;;;10329649;28;20488;-79
2022/08/07 06:22:45;;;;;;;1.70;1.13;;;;;;;;;;10359364;28;20142;-78
2022/08/07 06:28:00;;;;;;;1.42;1.10;;;;;;;;;;10338630;28;20096;-78
2022/08/07 06:33:01;;;;;;;;;;;;;;;;;;10366893;28;20074;-78
2022/08/07 06:38:02;;;;;;;1.25;1.15;;;;;;;;;;10335792;28;19913;-77
2022/08/07 06:43:04;;;;;;;1.95;1.00;;;;;;;;;;10370291;28;20033;-79
2022/08/07 06:48:20;;;;;;;1.73;1.05;;;;;;;;;;10365268;28;20108;-77
2022/08/07 06:53:23;;;;;;;3.20;1.13;;;;;;;;;;10350169;28;20041;-78
2022/08/07 06:58:26;;;;;;;1.20;1.10;;;;;;;;;;10372355;28;20448;-80
2022/08/07 07:03:32;;;;;;;1.77;1.38;;;;;;;;;;10399194;28;20050;-77
2022/08/07 07:08:33;;;;;;;3.70;1.65;;;;;;;;;;10371362;28;20050;-81
2022/08/07 07:13:37;;;;;;;2.97;1.80;;;;;;;;;;10364580;28;20129;-78
2022/08/07 07:18:40;;;;;;;1.92;1.40;;;;;;;;;;10366756;28;20034;-80
2022/08/07 07:23:41;;;;;;;1.23;1.13;;;;;;;;;;10368001;28;20034;-78
2022/08/07 07:28:45;;;;;;;1.77;1.40;;;;;;;;;;10356331;28;20062;-79
2022/08/07 07:33:47;;;;;;;1.63;1.30;;;;;;;;;;10347433;28;20045;-78
2022/08/07 07:38:48;;;;;;;2.40;1.52;;;;;;;;;;10356339;28;20053;-78
2022/08/07 07:43:50;;;;;;;1.67;1.58;;;;;;;;;;10364497;28;20584;-79
2022/08/07 07:48:51;;;;;;;2.93;1.43;;;;;;;;;;10365456;28;20057;-78
2022/08/07 07:53:53;;;;;;;1.83;1.65;;;;;;;;;;10357477;28;20071;-80
2022/08/07 07:58:54;;;;;;;2.20;1.73;;;;;;;;;;10361157;28;20501;-79
2022/08/07 08:03:56;;;;;;;1.70;1.57;;;;;;;;;;10333450;28;20085;-77
2022/08/07 08:08:58;;;;;;;2.22;1.50;;;;;;;;;;10353031;28;20085;-78
2022/08/07 08:13:59;;;;;;;1.80;1.55;;;;;;;;;;10367495;28;20509;-78
2022/08/07 08:19:01;;;;;;;1.92;1.63;;;;;;;;;;10354263;28;20053;-79
2022/08/07 08:29:21;;;;;;;1.90;1.30;;;;;;;;;;10351006;28;20401;-79
2022/08/07 08:34:23;;;;;;;1.60;1.30;;;;;;;;;;10362573;28;20076;-78
2022/08/07 08:39:25;;;;;;;1.48;1.30;;;;;;;;;;10361969;28;20045;-78
2022/08/07 08:44:29;;;;;;;2.10;1.40;;;;;;;;;;10383140;28;20046;-78
2022/08/07 08:49:32;;;;;;;1.33;1.23;;;;;;;;;;10364420;28;20731;-77
2022/08/07 08:54:37;;;;;;;2.03;1.40;;;;;;;;;;10356562;28;20068;-78
2022/08/07 08:59:52;;;;;;;1.63;1.40;;;;;;;;;;10363449;28;20045;-78
2022/08/07 09:04:59;;;;;;;1.85;1.17;;;;;;;;;;10360676;28;20074;-78
2022/08/07 09:10:02;;;;;;;1.45;1.20;;;;;;;;;;10358962;28;20745;-79
2022/08/07 09:15:02;;;;;;;1.58;1.10;;;;;;;;;;10360615;28;20045;-77
2022/08/07 09:20:22;;;;;;;1.52;1.00;;;;;;;;;;10339286;28;20046;-78
2022/08/07 09:25:31;;;;;;;1.88;1.30;;;;;;;;;;10339528;28;20133;-78
2022/08/07 09:30:32;;;;;;;1.20;0.98;;;;;;;;;;10346540;28;20041;-77
2022/08/07 09:35:48;;;;;;;1.52;1.10;;;;;;;;;;10354094;28;20054;-79
2022/08/07 09:41:11;;;;;;;1.45;1.10;;;;;;;;;;10344468;28;20041;-78
2022/08/07 09:46:11;;;;;;;1.05;0.95;;;;;;;;;;10353684;28;20049;-77
2022/08/07 09:51:12;;;;;;;1.37;1.07;;;;;;;;;;10345934;28;20038;-78
2022/08/07 09:56:31;;;;;;;1.60;1.30;;;;;;;;;;10360846;28;20418;-78
2022/08/07 10:01:39;;;;;;;2.95;1.20;;;;;;;;;;10340875;28;20054;-78
2022/08/07 10:07:01;;;;;;;2.50;1.02;;;;;;;;;;10340764;28;20517;-76
2022/08/07 10:12:14;;;;;;;2.67;1.00;;;;;;;;;;10355363;28;20049;-78
2022/08/07 10:17:29;;;;;;;1.67;1.27;;;;;;;;;;10352402;28;20438;-77
2022/08/07 10:22:44;;;;;;;3.17;1.00;;;;;;;;;;10351878;28;20044;-79
2022/08/07 10:27:50;;;;;;;1.35;1.10;;;;;;;;;;10362859;28;20365;-77
2022/08/07 10:32:51;;;;;;;1.60;1.25;;;;;;;;;;10345225;28;20041;-78
2022/08/07 10:37:54;;;;;;;1.83;1.00;;;;;;;;;;10345627;28;20030;-78
2022/08/07 10:42:57;;;;;;;1.20;1.10;;;;;;;;;;10365447;28;20077;-77
2022/08/07 10:48:03;;;;;;;1.30;1.00;;;;;;;;;;10386195;28;20126;-76
2022/08/07 10:53:16;;;;;;;1.13;1.00;;;;;;;;;;10371636;28;20052;-78
2022/08/07 10:58:31;;;;;;;2.80;1.23;;;;;;;;;;10353540;28;20080;-78
2022/08/07 11:03:40;;;;;;;1.30;0.93;;;;;;;;;;10347846;28;20046;-78
2022/08/07 11:09:01;;;;;;;1.35;1.00;;;;;;;;;;10353610;28;20132;-76
2022/08/07 11:14:27;;;;;;;1.20;1.05;;;;;;;;;;10358975;28;20145;-79
2022/08/07 11:19:27;;;;;;;2.45;1.33;;;;;;;;;;10336926;28;20046;-77
2022/08/07 11:24:45;;;;;;;1.85;0.90;;;;;;;;;;10346559;28;20046;-78
2022/08/07 11:30:04;;;;;;;1.95;0.90;;;;;;;;;;10355826;28;20425;-79
2022/08/07 11:35:14;;;;;;;1.25;0.90;;;;;;;;;;10342086;28;20137;-78
2022/08/07 11:40:34;;;;;;;1.30;1.20;;;;;;;;;;10327057;28;20045;-78
2022/08/07 11:45:53;;;;;;;1.33;0.90;;;;;;;;;;10366303;28;20076;-77
2022/08/07 11:51:03;;;;;;;1.55;1.30;;;;;;;;;;10347618;28;20173;-79
2022/08/07 11:56:22;;;;;;;2.63;1.20;;;;;;;;;;10356370;28;20070;-78
2022/08/07 12:01:42;;;;;;;1.15;0.90;;;;;;;;;;10366349;28;20053;-77
2022/08/07 12:06:48;;;;;;;1.13;1.02;;;;;;;;;;10364926;28;20417;-78
2022/08/07 12:12:03;;;;;;;1.17;1.08;;;;;;;;;;10349202;28;20474;-77
2022/08/07 12:17:06;;;;;;;1.38;1.20;;;;;;;;;;10359437;28;20493;-77
2022/08/07 12:22:12;;;;;;;2.20;1.00;;;;;;;;;;10357523;28;20486;-78
2022/08/07 12:27:14;;;;;;;1.88;1.02;;;;;;;;;;10344184;28;20127;-78
2022/08/07 12:32:18;;;;;;;1.00;0.90;;;;;;;;;;10339163;28;20120;-77
2022/08/07 12:37:19;;;;;;;1.42;0.90;;;;;;;;;;10363278;28;20485;-77
2022/08/07 12:42:23;;;;;;;1.23;1.05;;;;;;;;;;10350569;28;20056;-77
2022/08/07 12:47:29;;;;;;;1.15;1.05;;;;;;;;;;10378533;28;20056;-77
2022/08/07 12:52:40;;;;;;;1.13;0.90;;;;;;;;;;10391166;28;20053;-78
2022/08/07 12:57:42;;;;;;;1.27;1.00;;;;;;;;;;10387709;28;20125;-80
2022/08/07 13:03:06;;;;;;;1.60;0.93;;;;;;;;;;10385484;28;20046;-77
2022/08/07 13:08:19;;;;;;;1.10;1.00;;;;;;;;;;10379335;28;20098;-77
2022/08/07 13:13:31;;;;;;;1.40;1.00;;;;;;;;;;10377005;28;20070;-78
2022/08/07 13:18:34;;;;;;;1.10;1.00;;;;;;;;;;10388802;28;20077;-77
2022/08/07 13:23:41;;;;;;;1.63;1.20;;;;;;;;;;10388460;28;20046;-79
2022/08/07 13:28:48;;;;;;;2.30;1.77;;;;;;;;;;10361133;28;20053;-77
2022/08/07 13:33:54;;;;;;;1.35;0.90;;;;;;;;;;10363848;28;20046;-78
2022/08/07 13:38:59;;;;;;;2.08;1.17;;;;;;;;;;10357880;28;20057;-78
2022/08/07 13:44:03;;;;;;;2.10;1.00;;;;;;;;;;10352529;28;20097;-77
2022/08/07 13:49:05;;;;;;;1.90;0.90;;;;;;;;;;10360006;28;20065;-79
2022/08/07 13:54:07;;;;;;;1.30;1.20;;;;;;;;;;10337671;28;20077;-77
2022/08/07 13:59:14;;;;;;;1.42;0.93;;;;;;;;;;10374508;28;20050;-77
2022/08/07 14:04:15;;;;;;;1.27;1.10;;;;;;;;;;10387815;28;20066;-79
2022/08/07 14:09:27;;;;;;;1.83;1.57;;;;;;;;;;10383702;28;20053;-79
2022/08/07 14:14:32;;;;;;;1.15;0.95;;;;;;;;;;10375904;28;20052;-78
2022/08/07 14:19:37;;;;;;;1.00;0.90;;;;;;;;;;10358522;28;20042;-76
2022/08/07 14:24:41;;;;;;;1.35;1.00;;;;;;;;;;10349983;28;20073;-78
2022/08/07 14:29:46;;;;;;;1.90;1.20;;;;;;;;;;10347455;28;20122;-77
2022/08/07 14:34:48;;;;;;;2.30;1.40;;;;;;;;;;10360720;28;20528;-78
2022/08/07 14:39:49;;;;;;;1.13;1.02;;;;;;;;;;10334570;28;20045;-78
2022/08/07 14:44:53;;;;;;;1.20;1.00;;;;;;;;;;10362733;28;20142;-78
2022/08/07 14:49:54;;;;;;;1.10;1.00;;;;;;;;;;10366464;28;20189;-77
2022/08/07 14:54:56;;;;;;;2.07;1.17;;;;;;;;;;10362525;28;20106;-77
2022/08/07 14:59:58;;;;;;;2.55;1.30;;;;;;;;;;10353148;28;20042;-77
2022/08/07 15:04:58;;;;;;;1.17;1.05;;;;;;;;;;10342161;28;20073;-77
2022/08/07 15:09:59;;;;;;;1.30;1.20;;;;;;;;;;10351077;28;20045;-78
2022/08/07 15:15:11;;;;;;;1.40;1.00;;;;;;;;;;10331653;28;20042;-80
2022/08/07 15:20:14;;;;;;;1.48;1.15;;;;;;;;;;10365869;28;20139;-78
2022/08/07 15:25:16;;;;;;;2.47;1.23;;;;;;;;;;10356607;28;20076;-77
2022/08/07 15:30:17;;;;;;;1.50;1.00;;;;;;;;;;10370228;28;20046;-79
2022/08/07 15:35:19;;;;;;;1.73;1.20;;;;;;;;;;10370637;28;20094;-77
2022/08/07 15:40:22;;;;;;;2.03;1.10;;;;;;;;;;10368186;28;20196;-78
2022/08/07 15:45:22;;;;;;;1.27;1.17;;;;;;;;;;10366668;28;20652;-78
2022/08/07 15:50:26;;;;;;;1.20;1.10;;;;;;;;;;10370861;28;20049;-80
2022/08/07 15:55:27;;;;;;;1.63;1.42;;;;;;;;;;10381478;28;20038;-76
2022/08/07 16:00:34;;;;;;;2.17;1.20;;;;;;;;;;10388112;28;20057;-77
2022/08/07 16:05:35;;;;;;;2.47;1.23;;;;;;;;;;10378852;28;20069;-79
2022/08/07 16:10:36;;;;;;;1.45;1.20;;;;;;;;;;10359892;28;20402;-77
2022/08/07 16:15:44;;;;;;;1.60;1.20;;;;;;;;;;10369476;28;20053;-78
2022/08/07 16:20:51;;;;;;;2.03;1.38;;;;;;;;;;10369822;28;20563;-79
2022/08/07 16:26:06;;;;;;;2.78;1.30;;;;;;;;;;10354702;28;20047;-78
2022/08/07 16:31:26;;;;;;;1.63;1.20;;;;;;;;;;10366404;28;20042;-78
2022/08/07 16:37:01;;;;;;;1.55;1.25;;;;;;;;;;10349050;28;20118;-77
2022/08/07 16:42:21;;;;;;;1.50;1.27;;;;;;;;;;10183034;29;20044;-78
2022/08/07 16:47:27;;;;;;;1.70;1.40;;;;;;;;;;10206246;28;20073;-78
2022/08/07 16:52:34;;;;;;;1.67;1.42;;;;;;;;;;10356173;28;20038;-77
2022/08/07 16:57:40;;;;;;;2.10;1.20;;;;;;;;;;10365253;28;20038;-78
2022/08/07 17:02:50;;;;;;;1.23;1.10;;;;;;;;;;10367917;28;20048;-79
2022/08/07 17:07:50;;;;;;;1.20;1.10;;;;;;;;;;10361076;28;20065;-77
2022/08/07 17:13:01;;;;;;;1.90;1.27;;;;;;;;;;10359726;28;20053;-78
2022/08/07 17:18:21;;;;;;;1.20;1.10;;;;;;;;;;10340143;28;20050;-78
2022/08/07 17:23:33;;;;;;;1.48;1.20;;;;;;;;;;10360269;28;20276;-76
2022/08/07 17:28:52;;;;;;;2.00;1.20;;;;;;;;;;10340556;28;20110;-77
2022/08/07 17:33:58;;;;;;;2.33;1.23;;;;;;;;;;10342656;28;20498;-79
2022/08/07 17:39:11;;;;;;;1.73;1.30;;;;;;;;;;10342276;28;20733;-78
2022/08/07 17:44:16;;;;;;;1.50;1.23;;;;;;;;;;10342161;28;20045;-79
2022/08/07 17:49:29;;;;;;;2.45;2.10;;;;;;;;;;10357972;28;20081;-80
2022/08/07 17:54:32;;;;;;;3.00;1.30;;;;;;;;;;10365190;28;20491;-80
2022/08/07 17:59:43;;;;;;;1.40;1.30;;;;;;;;;;10343622;28;20056;-78
2022/08/07 18:04:52;;;;;;;1.50;1.38;;;;;;;;;;10361145;28;20042;-78
2022/08/07 18:09:57;;;;;;;2.22;1.65;;;;;;;;;;10349754;28;20073;-79
2022/08/07 18:15:16;;;;;;;2.38;1.70;;;;;;;;;;10361231;28;20049;-77
2022/08/07 18:20:46;;;;;;;1.52;1.40;;;;;;;;;;10374350;28;20073;-80
2022/08/07 18:25:48;;;;;;;1.50;1.40;;;;;;;;;;10346958;28;20128;-80
2022/08/07 18:30:54;;;;;;;1.50;1.40;;;;;;;;;;10374185;28;20077;-78
2022/08/07 18:35:54;;;;;;;2.15;1.58;;;;;;;;;;10369765;28;20037;-77
2022/08/07 18:41:15;;;;;;;1.80;1.70;;;;;;;;;;10373362;28;20061;-77
2022/08/07 18:46:21;;;;;;;1.50;1.40;;;;;;;;;;10376324;28;20100;-78
2022/08/07 18:51:33;;;;;;;3.08;1.80;;;;;;;;;;10360503;28;20501;-78
2022/08/07 18:56:39;;;;;;;3.33;2.20;;;;;;;;;;10368237;28;20102;-78
2022/08/07 19:01:43;;;;;;;2.38;1.88;;;;;;;;;;10351939;28;20038;-79
2022/08/07 19:06:48;;;;;;;1.80;1.70;;;;;;;;;;10364726;28;20066;-77
2022/08/07 19:12:07;;;;;;;3.33;2.10;;;;;;;;;;10369088;28;20070;-78
2022/08/07 19:17:13;;;;;;;5.07;3.95;;;;;;;;;;10367614;28;20049;-79
2022/08/07 19:22:18;;;;;;;4.72;3.65;;;;;;;;;;10360547;28;20057;-78
2022/08/07 19:27:21;;;;;;;5.40;4.22;;;;;;;;;;10381784;28;20041;-79
2022/08/07 19:32:22;;;;;;;6.25;4.65;;;;;;;;;;10390526;28;20045;-77
2022/08/07 19:37:24;;;;;;;4.80;4.18;;;;;;;;;;10363342;28;20496;-79
2022/08/07 19:42:25;;;;;;;4.00;3.70;;;;;;;;;;10353001;28;20807;-78
2022/08/07 19:47:28;;;;;;;2.87;2.57;;;;;;;;;;10357318;28;20545;-78
2022/08/07 19:52:29;;;;;;;4.55;2.70;;;;;;;;;;10339946;28;20057;-79
2022/08/07 19:57:38;;;;;;;2.50;2.17;;;;;;;;;;10363853;28;20045;-78
2022/08/07 20:02:41;;;;;;;2.00;1.80;;;;;;;;;;10361672;28;20053;-79
2022/08/07 20:07:46;;;;;;;2.28;1.90;;;;;;;;;;10363959;28;20502;-79
2022/08/07 20:12:49;;;;;;;2.13;1.60;;;;;;;;;;10365430;28;20428;-81
2022/08/07 20:17:49;;;;;;;;;;;;;;;;;;10363474;28;20421;-79
2022/08/07 20:22:51;;;;;;;1.87;1.57;;;;;;;;;;10362378;28;19933;-78
2022/08/07 20:27:54;;;;;;;1.67;1.40;;;;;;;;;;10361010;28;20192;-79
2022/08/07 20:32:56;;;;;;;1.65;1.50;;;;;;;;;;10365461;28;20108;-79
2022/08/07 20:37:56;;;;;;;2.30;1.90;;;;;;;;;;10361079;28;20058;-78
2022/08/07 20:42:57;;;;;;;1.85;1.50;;;;;;;;;;10355603;28;20046;-78
2022/08/07 20:47:58;;;;;;;1.90;1.70;;;;;;;;;;10347116;28;20060;-79
2022/08/07 20:52:59;;;;;;;2.77;2.00;;;;;;;;;;10353519;28;20046;-79
2022/08/07 20:58:00;;;;;;;3.13;2.17;;;;;;;;;;10367545;28;20085;-78
2022/08/07 21:03:02;;;;;;;2.13;1.92;;;;;;;;;;10361739;28;20042;-79
2022/08/07 21:08:04;;;;;;;3.50;2.03;;;;;;;;;;10350986;28;20058;-78
2022/08/07 21:13:09;;;;;;;2.10;1.90;;;;;;;;;;10343665;28;20065;-78
2022/08/07 21:18:11;;;;;;;2.10;1.90;;;;;;;;;;10333221;28;20084;-78
2022/08/07 21:23:17;;;;;;;2.60;2.20;;;;;;;;;;10359138;28;20042;-78
2022/08/07 21:28:22;;;;;;;2.30;1.85;;;;;;;;;;10360121;28;20049;-79
2022/08/07 21:33:43;;;;;;;2.80;2.00;;;;;;;;;;10360471;28;20065;-78
2022/08/07 21:39:02;;;;;;;2.30;2.10;;;;;;;;;;10361374;28;20116;-78
2022/08/07 21:44:13;;;;;;;1.98;1.70;;;;;;;;;;10344414;28;20478;-76
2022/08/07 21:49:20;;;;;;;2.90;2.33;;;;;;;;;;10356715;28;20052;-79
2022/08/07 21:54:24;;;;;;;3.17;1.90;;;;;;;;;;10361044;28;20096;-78
2022/08/07 22:00:00;;;;;;;1.92;1.70;;;;;;;;;;10362000;28;20050;-78
2022/08/07 22:05:01;;;;;;;2.10;1.88;;;;;;;;;;10266827;28;20145;-78
2022/08/07 22:10:04;;;;;;;2.33;2.10;;;;;;;;;;10350085;28;20045;-79
2022/08/07 22:15:16;;;;;;;2.33;2.00;;;;;;;;;;10361848;28;20045;-77
2022/08/07 22:20:19;;;;;;;1.90;1.77;;;;;;;;;;10337987;28;20429;-78
2022/08/07 22:25:23;;;;;;;2.97;2.40;;;;;;;;;;10334440;28;20136;-78
2022/08/07 22:30:25;;;;;;;3.88;2.30;;;;;;;;;;10343700;28;20058;-79
2022/08/07 22:35:27;;;;;;;2.95;2.40;;;;;;;;;;10353783;28;20073;-79
2022/08/07 22:40:31;;;;;;;2.58;2.38;;;;;;;;;;10365052;28;20213;-77
2022/08/07 22:45:45;;;;;;;2.80;2.50;;;;;;;;;;10351974;28;20455;-78
2022/08/07 22:51:04;;;;;;;2.92;2.33;;;;;;;;;;10356072;28;20049;-77
2022/08/07 22:56:06;;;;;;;2.40;2.20;;;;;;;;;;10364132;28;20049;-77
2022/08/07 23:01:14;;;;;;;3.00;2.13;;;;;;;;;;10360462;28;20045;-78
2022/08/07 23:06:23;;;;;;;3.30;2.47;;;;;;;;;;10367629;28;20113;-78
2022/08/07 23:11:53;;;;;;;3.03;2.20;;;;;;;;;;10361625;28;20285;-77
2022/08/07 23:16:59;;;;;;;2.38;2.15;;;;;;;;;;10330665;28;20046;-79
2022/08/07 23:22:07;;;;;;;3.17;2.30;;;;;;;;;;10351560;28;20052;-80
2022/08/07 23:27:37;;;;;;;3.50;2.60;;;;;;;;;;10372295;28;20054;-78
2022/08/07 23:32:57;;;;;;;2.60;2.40;;;;;;;;;;10291950;28;20044;-77
2022/08/07 23:37:57;;;;;;;2.50;2.22;;;;;;;;;;10383476;28;20042;-79
2022/08/07 23:43:16;;;;;;;2.30;2.10;;;;;;;;;;10387746;28;20075;-77
2022/08/07 23:48:23;;;;;;;3.33;2.67;;;;;;;;;;10364133;28;20050;-78
2022/08/07 23:53:33;;;;;;;3.17;2.58;;;;;;;;;;10370929;28;20048;-78
2022/08/07 23:58:52;;;;;;;2.92;2.50;;;;;;;;;;10373330;28;20133;-77
